sensor_id;sensor_type;location;lat;lon;timestamp;P1;durP1;ratioP1;P2;durP2;ratioP2
25359;SDS011;13311;51.386;0.016;2022-12-16T00:03:21;24.65;;;11.65;;
25359;SDS011;13311;51.386;0.016;2022-12-16T00:08:21;26.27;;;12.33;;
25359;SDS011;13311;51.386;0.016;2022-12-16T00:13:22;26.95;;;11.27;;
25359;SDS011;13311;51.386;0.016;2022-12-16T00:18:23;19.63;;;11.15;;
25359;SDS011;13311;51.386;0.016;2022-12-16T00:23:24;23.05;;;10.70;;
25359;SDS011;13311;51.386;0.016;2022-12-16T00:28:34;21.38;;;11.07;;
25359;SDS011;13311;51.386;0.016;2022-12-16T00:33:34;19.05;;;11.18;;
25359;SDS011;13311;51.386;0.016;2022-12-16T00:38:35;23.27;;;11.05;;
25359;SDS011;13311;51.386;0.016;2022-12-16T00:43:36;17.83;;;9.90;;
25359;SDS011;13311;51.386;0.016;2022-12-16T00:48:37;23.60;;;10.35;;
25359;SDS011;13311;51.386;0.016;2022-12-16T00:53:38;26.15;;;11.10;;
25359;SDS011;13311;51.386;0.016;2022-12-16T00:58:39;20.05;;;10.10;;
25359;SDS011;13311;51.386;0.016;2022-12-16T01:03:40;21.05;;;10.27;;
25359;SDS011;13311;51.386;0.016;2022-12-16T01:08:41;23.02;;;10.15;;
25359;SDS011;13311;51.386;0.016;2022-12-16T01:13:50;22.63;;;10.48;;
25359;SDS011;13311;51.386;0.016;2022-12-16T01:18:53;24.58;;;11.15;;
25359;SDS011;13311;51.386;0.016;2022-12-16T01:23:55;22.45;;;11.38;;
25359;SDS011;13311;51.386;0.016;2022-12-16T01:28:56;21.42;;;11.43;;
25359;SDS011;13311;51.386;0.016;2022-12-16T01:33:57;23.10;;;11.48;;
25359;SDS011;13311;51.386;0.016;2022-12-16T01:38:58;24.42;;;11.25;;
25359;SDS011;13311;51.386;0.016;2022-12-16T01:44:12;19.70;;;10.68;;
25359;SDS011;13311;51.386;0.016;2022-12-16T01:49:40;24.08;;;11.60;;
25359;SDS011;13311;51.386;0.016;2022-12-16T01:54:52;20.70;;;10.25;;
25359;SDS011;13311;51.386;0.016;2022-12-16T02:00:01;21.15;;;10.38;;
25359;SDS011;13311;51.386;0.016;2022-12-16T02:05:05;24.25;;;11.63;;
25359;SDS011;13311;51.386;0.016;2022-12-16T02:10:23;26.88;;;12.07;;
25359;SDS011;13311;51.386;0.016;2022-12-16T02:16:14;22.65;;;11.27;;
25359;SDS011;13311;51.386;0.016;2022-12-16T02:42:49;20.60;;;10.60;;
25359;SDS011;13311;51.386;0.016;2022-12-16T02:47:55;25.45;;;11.63;;
25359;SDS011;13311;51.386;0.016;2022-12-16T02:52:56;24.00;;;11.15;;
25359;SDS011;13311;51.386;0.016;2022-12-16T02:58:00;25.25;;;11.77;;
25359;SDS011;13311;51.386;0.016;2022-12-16T03:03:19;29.00;;;11.52;;
25359;SDS011;13311;51.386;0.016;2022-12-16T03:08:50;26.65;;;11.80;;
25359;SDS011;13311;51.386;0.016;2022-12-16T03:13:55;24.58;;;11.73;;
25359;SDS011;13311;51.386;0.016;2022-12-16T03:18:58;23.67;;;12.23;;
25359;SDS011;13311;51.386;0.016;2022-12-16T03:24:06;22.27;;;11.13;;
25359;SDS011;13311;51.386;0.016;2022-12-16T03:29:21;22.58;;;10.30;;
25359;SDS011;13311;51.386;0.016;2022-12-16T03:35:01;30.15;;;10.93;;
25359;SDS011;13311;51.386;0.016;2022-12-16T03:40:18;17.67;;;10.48;;
25359;SDS011;13311;51.386;0.016;2022-12-16T03:45:24;25.20;;;11.43;;
25359;SDS011;13311;51.386;0.016;2022-12-16T03:50:30;25.10;;;11.73;;
25359;SDS011;13311;51.386;0.016;2022-12-16T03:55:33;24.63;;;11.45;;
25359;SDS011;13311;51.386;0.016;2022-12-16T04:00:33;23.05;;;11.43;;
25359;SDS011;13311;51.386;0.016;2022-12-16T04:05:34;22.58;;;11.00;;
25359;SDS011;13311;51.386;0.016;2022-12-16T04:10:35;23.30;;;10.85;;
25359;SDS011;13311;51.386;0.016;2022-12-16T04:15:57;19.75;;;11.15;;
25359;SDS011;13311;51.386;0.016;2022-12-16T04:21:17;18.80;;;10.13;;
25359;SDS011;13311;51.386;0.016;2022-12-16T04:26:36;19.90;;;11.30;;
25359;SDS011;13311;51.386;0.016;2022-12-16T04:31:56;27.42;;;11.02;;
25359;SDS011;13311;51.386;0.016;2022-12-16T04:36:58;20.40;;;10.45;;
25359;SDS011;13311;51.386;0.016;2022-12-16T04:42:19;25.00;;;10.43;;
25359;SDS011;13311;51.386;0.016;2022-12-16T04:47:38;20.83;;;11.13;;
25359;SDS011;13311;51.386;0.016;2022-12-16T04:52:57;19.88;;;11.93;;
25359;SDS011;13311;51.386;0.016;2022-12-16T04:58:17;22.73;;;11.55;;
25359;SDS011;13311;51.386;0.016;2022-12-16T05:03:36;23.85;;;11.55;;
25359;SDS011;13311;51.386;0.016;2022-12-16T05:08:56;21.33;;;11.07;;
25359;SDS011;13311;51.386;0.016;2022-12-16T05:14:16;22.98;;;10.50;;
25359;SDS011;13311;51.386;0.016;2022-12-16T05:19:35;18.65;;;11.27;;
25359;SDS011;13311;51.386;0.016;2022-12-16T05:24:54;21.70;;;11.00;;
25359;SDS011;13311;51.386;0.016;2022-12-16T05:30:13;23.08;;;11.35;;
25359;SDS011;13311;51.386;0.016;2022-12-16T05:35:33;21.30;;;10.85;;
25359;SDS011;13311;51.386;0.016;2022-12-16T05:40:52;17.05;;;10.38;;
25359;SDS011;13311;51.386;0.016;2022-12-16T05:46:11;22.17;;;12.07;;
25359;SDS011;13311;51.386;0.016;2022-12-16T05:51:31;20.45;;;11.20;;
25359;SDS011;13311;51.386;0.016;2022-12-16T05:56:50;18.63;;;11.60;;
25359;SDS011;13311;51.386;0.016;2022-12-16T06:02:09;20.45;;;11.85;;
25359;SDS011;13311;51.386;0.016;2022-12-16T06:07:28;26.88;;;11.85;;
25359;SDS011;13311;51.386;0.016;2022-12-16T06:12:47;23.38;;;12.27;;
25359;SDS011;13311;51.386;0.016;2022-12-16T06:18:06;19.92;;;11.35;;
25359;SDS011;13311;51.386;0.016;2022-12-16T06:23:26;21.75;;;11.20;;
25359;SDS011;13311;51.386;0.016;2022-12-16T06:28:46;21.48;;;11.75;;
25359;SDS011;13311;51.386;0.016;2022-12-16T06:34:05;23.05;;;12.15;;
25359;SDS011;13311;51.386;0.016;2022-12-16T06:39:24;25.27;;;12.85;;
25359;SDS011;13311;51.386;0.016;2022-12-16T06:44:52;22.17;;;12.23;;
25359;SDS011;13311;51.386;0.016;2022-12-16T06:50:11;21.90;;;12.05;;
25359;SDS011;13311;51.386;0.016;2022-12-16T06:55:50;27.60;;;11.98;;
25359;SDS011;13311;51.386;0.016;2022-12-16T07:01:10;20.75;;;12.65;;
25359;SDS011;13311;51.386;0.016;2022-12-16T07:06:29;24.30;;;12.93;;
25359;SDS011;13311;51.386;0.016;2022-12-16T07:11:48;23.27;;;12.60;;
25359;SDS011;13311;51.386;0.016;2022-12-16T07:17:07;20.58;;;12.73;;
25359;SDS011;13311;51.386;0.016;2022-12-16T07:22:27;26.85;;;13.70;;
25359;SDS011;13311;51.386;0.016;2022-12-16T07:27:46;24.65;;;12.85;;
25359;SDS011;13311;51.386;0.016;2022-12-16T07:33:05;24.02;;;13.75;;
25359;SDS011;13311;51.386;0.016;2022-12-16T07:38:24;29.00;;;13.82;;
25359;SDS011;13311;51.386;0.016;2022-12-16T07:43:43;22.95;;;12.70;;
25359;SDS011;13311;51.386;0.016;2022-12-16T07:49:03;28.00;;;13.32;;
25359;SDS011;13311;51.386;0.016;2022-12-16T07:54:22;31.08;;;14.35;;
25359;SDS011;13311;51.386;0.016;2022-12-16T07:59:41;26.38;;;13.98;;
25359;SDS011;13311;51.386;0.016;2022-12-16T08:05:01;24.05;;;13.07;;
25359;SDS011;13311;51.386;0.016;2022-12-16T08:10:20;27.42;;;14.18;;
25359;SDS011;13311;51.386;0.016;2022-12-16T08:15:40;25.13;;;14.13;;
25359;SDS011;13311;51.386;0.016;2022-12-16T08:21:00;32.67;;;15.35;;
25359;SDS011;13311;51.386;0.016;2022-12-16T08:26:19;25.95;;;14.32;;
25359;SDS011;13311;51.386;0.016;2022-12-16T08:31:38;31.15;;;15.65;;
25359;SDS011;13311;51.386;0.016;2022-12-16T08:36:58;28.67;;;15.98;;
25359;SDS011;13311;51.386;0.016;2022-12-16T08:42:17;30.30;;;17.02;;
25359;SDS011;13311;51.386;0.016;2022-12-16T08:47:36;35.95;;;16.90;;
25359;SDS011;13311;51.386;0.016;2022-12-16T08:52:55;33.30;;;18.55;;
25359;SDS011;13311;51.386;0.016;2022-12-16T08:58:14;36.40;;;18.20;;
25359;SDS011;13311;51.386;0.016;2022-12-16T09:03:34;36.92;;;17.33;;
25359;SDS011;13311;51.386;0.016;2022-12-16T09:08:54;39.97;;;19.55;;
25359;SDS011;13311;51.386;0.016;2022-12-16T09:14:13;40.97;;;19.23;;
25359;SDS011;13311;51.386;0.016;2022-12-16T09:19:33;42.22;;;19.98;;
25359;SDS011;13311;51.386;0.016;2022-12-16T09:24:52;41.00;;;20.77;;
25359;SDS011;13311;51.386;0.016;2022-12-16T09:30:12;38.03;;;20.17;;
25359;SDS011;13311;51.386;0.016;2022-12-16T09:35:31;36.70;;;21.80;;
25359;SDS011;13311;51.386;0.016;2022-12-16T09:40:50;35.55;;;19.85;;
25359;SDS011;13311;51.386;0.016;2022-12-16T09:51:41;39.85;;;21.70;;
25359;SDS011;13311;51.386;0.016;2022-12-16T09:57:03;35.28;;;21.10;;
25359;SDS011;13311;51.386;0.016;2022-12-16T10:02:24;39.67;;;21.67;;
25359;SDS011;13311;51.386;0.016;2022-12-16T10:07:51;33.05;;;21.02;;
25359;SDS011;13311;51.386;0.016;2022-12-16T10:25:12;38.58;;;22.98;;
25359;SDS011;13311;51.386;0.016;2022-12-16T10:30:38;41.00;;;24.27;;
25359;SDS011;13311;51.386;0.016;2022-12-16T10:35:58;45.13;;;24.67;;
25359;SDS011;13311;51.386;0.016;2022-12-16T10:41:18;49.88;;;27.67;;
25359;SDS011;13311;51.386;0.016;2022-12-16T10:46:44;46.60;;;25.60;;
25359;SDS011;13311;51.386;0.016;2022-12-16T10:52:03;39.83;;;25.30;;
25359;SDS011;13311;51.386;0.016;2022-12-16T11:03:35;39.17;;;24.63;;
25359;SDS011;13311;51.386;0.016;2022-12-16T11:09:05;42.00;;;23.02;;
25359;SDS011;13311;51.386;0.016;2022-12-16T11:14:37;43.70;;;23.80;;
25359;SDS011;13311;51.386;0.016;2022-12-16T11:20:07;45.00;;;24.27;;
25359;SDS011;13311;51.386;0.016;2022-12-16T11:25:34;45.60;;;25.05;;
25359;SDS011;13311;51.386;0.016;2022-12-16T11:30:54;41.65;;;25.67;;
25359;SDS011;13311;51.386;0.016;2022-12-16T11:36:19;41.67;;;23.90;;
25359;SDS011;13311;51.386;0.016;2022-12-16T11:41:44;38.53;;;23.70;;
25359;SDS011;13311;51.386;0.016;2022-12-16T11:47:14;39.40;;;24.13;;
25359;SDS011;13311;51.386;0.016;2022-12-16T11:53:04;36.90;;;24.85;;
25359;SDS011;13311;51.386;0.016;2022-12-16T11:59:02;37.55;;;24.75;;
25359;SDS011;13311;51.386;0.016;2022-12-16T12:04:35;46.13;;;25.17;;
25359;SDS011;13311;51.386;0.016;2022-12-16T12:10:29;35.58;;;23.65;;
25359;SDS011;13311;51.386;0.016;2022-12-16T12:16:08;39.67;;;24.00;;
25359;SDS011;13311;51.386;0.016;2022-12-16T12:21:50;40.85;;;24.27;;
25359;SDS011;13311;51.386;0.016;2022-12-16T12:39:02;36.50;;;22.75;;
25359;SDS011;13311;51.386;0.016;2022-12-16T12:44:44;33.03;;;23.08;;
25359;SDS011;13311;51.386;0.016;2022-12-16T12:50:37;36.95;;;23.63;;
25359;SDS011;13311;51.386;0.016;2022-12-16T12:56:48;33.75;;;21.77;;
25359;SDS011;13311;51.386;0.016;2022-12-16T13:01:57;33.13;;;21.70;;
25359;SDS011;13311;51.386;0.016;2022-12-16T13:07:18;32.75;;;21.60;;
25359;SDS011;13311;51.386;0.016;2022-12-16T13:13:20;34.00;;;22.63;;
25359;SDS011;13311;51.386;0.016;2022-12-16T13:18:33;42.80;;;22.67;;
25359;SDS011;13311;51.386;0.016;2022-12-16T13:23:52;36.17;;;23.40;;
25359;SDS011;13311;51.386;0.016;2022-12-16T13:29:17;45.20;;;25.42;;
25359;SDS011;13311;51.386;0.016;2022-12-16T13:34:45;41.83;;;23.60;;
25359;SDS011;13311;51.386;0.016;2022-12-16T13:40:22;44.08;;;26.48;;
25359;SDS011;13311;51.386;0.016;2022-12-16T13:45:42;41.30;;;24.60;;
25359;SDS011;13311;51.386;0.016;2022-12-16T13:56:56;40.33;;;25.25;;
25359;SDS011;13311;51.386;0.016;2022-12-16T14:07:46;40.88;;;26.83;;
25359;SDS011;13311;51.386;0.016;2022-12-16T14:13:06;38.92;;;27.08;;
25359;SDS011;13311;51.386;0.016;2022-12-16T14:18:47;40.53;;;26.23;;
25359;SDS011;13311;51.386;0.016;2022-12-16T14:24:31;36.95;;;26.77;;
25359;SDS011;13311;51.386;0.016;2022-12-16T14:29:52;42.22;;;27.25;;
25359;SDS011;13311;51.386;0.016;2022-12-16T14:35:13;44.67;;;26.77;;
25359;SDS011;13311;51.386;0.016;2022-12-16T14:40:37;42.63;;;26.38;;
25359;SDS011;13311;51.386;0.016;2022-12-16T14:45:57;43.67;;;27.20;;
25359;SDS011;13311;51.386;0.016;2022-12-16T14:56:47;48.55;;;28.45;;
25359;SDS011;13311;51.386;0.016;2022-12-16T15:02:20;47.13;;;28.52;;
25359;SDS011;13311;51.386;0.016;2022-12-16T15:07:51;43.65;;;27.67;;
25359;SDS011;13311;51.386;0.016;2022-12-16T15:13:15;42.30;;;29.23;;
25359;SDS011;13311;51.386;0.016;2022-12-16T15:18:37;40.28;;;28.50;;
25359;SDS011;13311;51.386;0.016;2022-12-16T15:24:06;42.58;;;28.83;;
25359;SDS011;13311;51.386;0.016;2022-12-16T15:34:53;51.30;;;29.23;;
25359;SDS011;13311;51.386;0.016;2022-12-16T15:40:17;53.15;;;30.80;;
25359;SDS011;13311;51.386;0.016;2022-12-16T15:45:46;48.03;;;30.73;;
25359;SDS011;13311;51.386;0.016;2022-12-16T15:56:57;56.38;;;30.80;;
25359;SDS011;13311;51.386;0.016;2022-12-16T16:07:39;54.30;;;34.08;;
25359;SDS011;13311;51.386;0.016;2022-12-16T16:13:00;50.33;;;33.80;;
25359;SDS011;13311;51.386;0.016;2022-12-16T16:18:20;59.53;;;34.90;;
25359;SDS011;13311;51.386;0.016;2022-12-16T16:23:39;47.50;;;30.85;;
25359;SDS011;13311;51.386;0.016;2022-12-16T16:28:59;48.45;;;29.63;;
25359;SDS011;13311;51.386;0.016;2022-12-16T16:34:18;48.92;;;32.55;;
25359;SDS011;13311;51.386;0.016;2022-12-16T16:39:38;47.33;;;30.23;;
25359;SDS011;13311;51.386;0.016;2022-12-16T16:44:58;45.47;;;30.15;;
25359;SDS011;13311;51.386;0.016;2022-12-16T16:50:17;52.72;;;30.95;;
25359;SDS011;13311;51.386;0.016;2022-12-16T16:55:36;47.60;;;29.92;;
25359;SDS011;13311;51.386;0.016;2022-12-16T17:00:55;52.13;;;30.98;;
25359;SDS011;13311;51.386;0.016;2022-12-16T17:06:15;47.97;;;31.00;;
25359;SDS011;13311;51.386;0.016;2022-12-16T17:11:34;44.25;;;29.13;;
25359;SDS011;13311;51.386;0.016;2022-12-16T17:16:53;51.08;;;30.15;;
25359;SDS011;13311;51.386;0.016;2022-12-16T17:22:12;55.08;;;33.85;;
25359;SDS011;13311;51.386;0.016;2022-12-16T17:27:32;57.38;;;34.47;;
25359;SDS011;13311;51.386;0.016;2022-12-16T17:32:51;52.42;;;33.38;;
25359;SDS011;13311;51.386;0.016;2022-12-16T17:38:10;53.10;;;32.25;;
25359;SDS011;13311;51.386;0.016;2022-12-16T17:43:29;49.45;;;30.90;;
25359;SDS011;13311;51.386;0.016;2022-12-16T17:48:52;58.00;;;32.17;;
25359;SDS011;13311;51.386;0.016;2022-12-16T17:54:16;56.97;;;32.97;;
25359;SDS011;13311;51.386;0.016;2022-12-16T17:59:35;55.40;;;33.92;;
25359;SDS011;13311;51.386;0.016;2022-12-16T18:04:54;64.28;;;35.65;;
25359;SDS011;13311;51.386;0.016;2022-12-16T18:10:14;65.38;;;35.78;;
25359;SDS011;13311;51.386;0.016;2022-12-16T18:15:33;56.63;;;34.92;;
25359;SDS011;13311;51.386;0.016;2022-12-16T18:20:52;58.35;;;34.53;;
25359;SDS011;13311;51.386;0.016;2022-12-16T18:26:12;60.15;;;33.90;;
25359;SDS011;13311;51.386;0.016;2022-12-16T18:31:31;66.75;;;38.53;;
25359;SDS011;13311;51.386;0.016;2022-12-16T18:36:50;61.35;;;35.00;;
25359;SDS011;13311;51.386;0.016;2022-12-16T18:42:10;69.38;;;39.80;;
25359;SDS011;13311;51.386;0.016;2022-12-16T18:47:29;64.18;;;37.50;;
25359;SDS011;13311;51.386;0.016;2022-12-16T18:52:48;54.55;;;32.53;;
25359;SDS011;13311;51.386;0.016;2022-12-16T18:58:08;56.58;;;33.60;;
25359;SDS011;13311;51.386;0.016;2022-12-16T19:03:27;55.53;;;33.38;;
25359;SDS011;13311;51.386;0.016;2022-12-16T19:08:46;62.08;;;35.17;;
25359;SDS011;13311;51.386;0.016;2022-12-16T19:14:05;56.30;;;33.67;;
25359;SDS011;13311;51.386;0.016;2022-12-16T19:19:25;57.72;;;33.17;;
25359;SDS011;13311;51.386;0.016;2022-12-16T19:24:44;50.95;;;32.58;;
25359;SDS011;13311;51.386;0.016;2022-12-16T19:30:03;53.40;;;33.30;;
25359;SDS011;13311;51.386;0.016;2022-12-16T19:35:24;52.80;;;32.38;;
25359;SDS011;13311;51.386;0.016;2022-12-16T19:40:52;56.22;;;32.63;;
25359;SDS011;13311;51.386;0.016;2022-12-16T19:46:12;53.95;;;31.70;;
25359;SDS011;13311;51.386;0.016;2022-12-16T19:51:31;58.08;;;33.30;;
25359;SDS011;13311;51.386;0.016;2022-12-16T19:56:50;62.67;;;35.40;;
25359;SDS011;13311;51.386;0.016;2022-12-16T20:02:10;63.25;;;37.20;;
25359;SDS011;13311;51.386;0.016;2022-12-16T20:07:30;63.63;;;37.30;;
25359;SDS011;13311;51.386;0.016;2022-12-16T20:12:49;64.03;;;36.83;;
25359;SDS011;13311;51.386;0.016;2022-12-16T20:18:08;68.18;;;37.78;;
25359;SDS011;13311;51.386;0.016;2022-12-16T20:23:27;67.55;;;36.75;;
25359;SDS011;13311;51.386;0.016;2022-12-16T20:28:46;62.33;;;35.10;;
25359;SDS011;13311;51.386;0.016;2022-12-16T20:34:07;56.88;;;30.77;;
25359;SDS011;13311;51.386;0.016;2022-12-16T20:39:26;49.33;;;28.08;;
25359;SDS011;13311;51.386;0.016;2022-12-16T20:44:46;48.42;;;28.42;;
25359;SDS011;13311;51.386;0.016;2022-12-16T20:50:05;46.28;;;25.83;;
25359;SDS011;13311;51.386;0.016;2022-12-16T20:55:25;43.50;;;24.65;;
25359;SDS011;13311;51.386;0.016;2022-12-16T21:00:44;39.53;;;25.65;;
25359;SDS011;13311;51.386;0.016;2022-12-16T21:06:09;42.72;;;24.88;;
25359;SDS011;13311;51.386;0.016;2022-12-16T21:11:28;52.63;;;29.63;;
25359;SDS011;13311;51.386;0.016;2022-12-16T21:16:48;54.40;;;30.77;;
25359;SDS011;13311;51.386;0.016;2022-12-16T21:22:07;58.78;;;32.22;;
25359;SDS011;13311;51.386;0.016;2022-12-16T21:27:26;70.80;;;35.13;;
25359;SDS011;13311;51.386;0.016;2022-12-16T21:32:45;54.45;;;29.00;;
25359;SDS011;13311;51.386;0.016;2022-12-16T21:38:08;44.75;;;25.30;;
25359;SDS011;13311;51.386;0.016;2022-12-16T21:43:28;42.55;;;25.67;;
25359;SDS011;13311;51.386;0.016;2022-12-16T21:48:47;45.88;;;25.48;;
25359;SDS011;13311;51.386;0.016;2022-12-16T21:54:06;62.22;;;31.75;;
25359;SDS011;13311;51.386;0.016;2022-12-16T21:59:26;64.13;;;32.00;;
25359;SDS011;13311;51.386;0.016;2022-12-16T22:04:45;60.00;;;30.35;;
25359;SDS011;13311;51.386;0.016;2022-12-16T22:10:06;61.45;;;32.42;;
25359;SDS011;13311;51.386;0.016;2022-12-16T22:15:25;76.28;;;38.78;;
25359;SDS011;13311;51.386;0.016;2022-12-16T22:20:56;70.28;;;37.20;;
25359;SDS011;13311;51.386;0.016;2022-12-16T22:26:21;71.20;;;38.55;;
25359;SDS011;13311;51.386;0.016;2022-12-16T22:31:40;64.60;;;34.28;;
25359;SDS011;13311;51.386;0.016;2022-12-16T22:36:59;58.50;;;32.17;;
25359;SDS011;13311;51.386;0.016;2022-12-16T22:42:18;62.67;;;33.00;;
25359;SDS011;13311;51.386;0.016;2022-12-16T22:47:38;58.38;;;32.10;;
25359;SDS011;13311;51.386;0.016;2022-12-16T22:52:57;56.85;;;29.98;;
25359;SDS011;13311;51.386;0.016;2022-12-16T22:58:16;54.20;;;27.40;;
25359;SDS011;13311;51.386;0.016;2022-12-16T23:03:36;56.28;;;28.15;;
25359;SDS011;13311;51.386;0.016;2022-12-16T23:08:55;54.72;;;29.27;;
25359;SDS011;13311;51.386;0.016;2022-12-16T23:14:15;53.67;;;27.08;;
25359;SDS011;13311;51.386;0.016;2022-12-16T23:19:34;72.68;;;31.65;;
25359;SDS011;13311;51.386;0.016;2022-12-16T23:24:53;51.53;;;27.23;;
25359;SDS011;13311;51.386;0.016;2022-12-16T23:30:12;53.45;;;26.25;;
25359;SDS011;13311;51.386;0.016;2022-12-16T23:35:32;56.03;;;26.35;;
25359;SDS011;13311;51.386;0.016;2022-12-16T23:40:54;54.03;;;25.00;;
25359;SDS011;13311;51.386;0.016;2022-12-16T23:46:15;44.92;;;21.77;;
25359;SDS011;13311;51.386;0.016;2022-12-16T23:51:34;32.72;;;15.07;;
25359;SDS011;13311;51.386;0.016;2022-12-16T23:56:53;20.45;;;11.43;;
